sensor_id;sensor_type;location;lat;lon;timestamp;P1;durP1;ratioP1;P2;durP2;ratioP2
10967;SDS011;5536;49.602;10.980;2023-10-19T00:00:55;12.30;;;7.37;;
10967;SDS011;5536;49.602;10.980;2023-10-19T00:03:22;16.00;;;8.13;;
10967;SDS011;5536;49.602;10.980;2023-10-19T00:05:51;13.17;;;8.77;;
10967;SDS011;5536;49.602;10.980;2023-10-19T00:08:19;10.10;;;7.13;;
10967;SDS011;5536;49.602;10.980;2023-10-19T00:10:46;9.13;;;7.20;;
10967;SDS011;5536;49.602;10.980;2023-10-19T00:13:19;7.47;;;6.63;;
10967;SDS011;5536;49.602;10.980;2023-10-19T00:15:45;11.87;;;8.37;;
10967;SDS011;5536;49.602;10.980;2023-10-19T00:18:17;8.97;;;7.03;;
10967;SDS011;5536;49.602;10.980;2023-10-19T00:20:48;13.17;;;8.83;;
10967;SDS011;5536;49.602;10.980;2023-10-19T00:23:19;9.33;;;7.83;;
10967;SDS011;5536;49.602;10.980;2023-10-19T00:25:54;9.03;;;7.10;;
10967;SDS011;5536;49.602;10.980;2023-10-19T00:28:21;14.30;;;9.27;;
10967;SDS011;5536;49.602;10.980;2023-10-19T00:30:48;14.27;;;8.43;;
10967;SDS011;5536;49.602;10.980;2023-10-19T00:33:18;12.40;;;8.13;;
10967;SDS011;5536;49.602;10.980;2023-10-19T00:35:45;12.93;;;8.10;;
10967;SDS011;5536;49.602;10.980;2023-10-19T00:38:26;12.70;;;7.87;;
10967;SDS011;5536;49.602;10.980;2023-10-19T00:41:04;11.53;;;8.13;;
10967;SDS011;5536;49.602;10.980;2023-10-19T00:43:32;11.27;;;7.27;;
10967;SDS011;5536;49.602;10.980;2023-10-19T00:46:02;9.57;;;7.70;;
10967;SDS011;5536;49.602;10.980;2023-10-19T00:48:31;10.70;;;7.77;;
10967;SDS011;5536;49.602;10.980;2023-10-19T00:51:00;12.83;;;8.70;;
10967;SDS011;5536;49.602;10.980;2023-10-19T00:53:36;9.53;;;7.07;;
10967;SDS011;5536;49.602;10.980;2023-10-19T00:56:05;9.50;;;7.87;;
10967;SDS011;5536;49.602;10.980;2023-10-19T00:58:34;13.10;;;8.90;;
10967;SDS011;5536;49.602;10.980;2023-10-19T01:01:04;16.23;;;9.63;;
10967;SDS011;5536;49.602;10.980;2023-10-19T01:03:32;11.27;;;8.33;;
10967;SDS011;5536;49.602;10.980;2023-10-19T01:06:03;8.80;;;7.17;;
10967;SDS011;5536;49.602;10.980;2023-10-19T01:08:39;12.07;;;8.40;;
10967;SDS011;5536;49.602;10.980;2023-10-19T01:11:10;12.00;;;8.73;;
10967;SDS011;5536;49.602;10.980;2023-10-19T01:13:40;13.00;;;9.13;;
10967;SDS011;5536;49.602;10.980;2023-10-19T01:16:11;11.63;;;8.63;;
10967;SDS011;5536;49.602;10.980;2023-10-19T01:18:45;10.07;;;8.30;;
10967;SDS011;5536;49.602;10.980;2023-10-19T01:21:13;12.17;;;8.10;;
10967;SDS011;5536;49.602;10.980;2023-10-19T01:23:45;11.47;;;9.13;;
10967;SDS011;5536;49.602;10.980;2023-10-19T01:26:13;13.17;;;9.30;;
10967;SDS011;5536;49.602;10.980;2023-10-19T01:28:46;14.03;;;8.83;;
10967;SDS011;5536;49.602;10.980;2023-10-19T01:31:15;10.33;;;7.83;;
10967;SDS011;5536;49.602;10.980;2023-10-19T01:33:47;13.53;;;9.30;;
10967;SDS011;5536;49.602;10.980;2023-10-19T01:36:15;14.67;;;8.87;;
10967;SDS011;5536;49.602;10.980;2023-10-19T01:38:51;12.47;;;8.80;;
10967;SDS011;5536;49.602;10.980;2023-10-19T01:41:20;11.30;;;8.93;;
10967;SDS011;5536;49.602;10.980;2023-10-19T01:43:48;9.83;;;8.20;;
10967;SDS011;5536;49.602;10.980;2023-10-19T01:46:18;14.30;;;9.20;;
10967;SDS011;5536;49.602;10.980;2023-10-19T01:48:49;10.77;;;8.43;;
10967;SDS011;5536;49.602;10.980;2023-10-19T01:51:19;11.97;;;8.53;;
10967;SDS011;5536;49.602;10.980;2023-10-19T01:53:47;9.63;;;8.33;;
10967;SDS011;5536;49.602;10.980;2023-10-19T01:56:16;15.50;;;9.40;;
10967;SDS011;5536;49.602;10.980;2023-10-19T01:58:43;11.40;;;8.83;;
10967;SDS011;5536;49.602;10.980;2023-10-19T02:01:11;10.10;;;8.57;;
10967;SDS011;5536;49.602;10.980;2023-10-19T02:03:45;14.63;;;9.63;;
10967;SDS011;5536;49.602;10.980;2023-10-19T02:06:14;11.67;;;8.70;;
10967;SDS011;5536;49.602;10.980;2023-10-19T02:08:45;12.40;;;9.73;;
10967;SDS011;5536;49.602;10.980;2023-10-19T02:11:18;10.63;;;8.73;;
10967;SDS011;5536;49.602;10.980;2023-10-19T02:13:47;12.90;;;8.67;;
10967;SDS011;5536;49.602;10.980;2023-10-19T02:16:15;12.80;;;8.90;;
10967;SDS011;5536;49.602;10.980;2023-10-19T02:18:41;9.97;;;8.07;;
10967;SDS011;5536;49.602;10.980;2023-10-19T02:21:09;10.60;;;8.70;;
10967;SDS011;5536;49.602;10.980;2023-10-19T02:23:37;10.83;;;8.93;;
10967;SDS011;5536;49.602;10.980;2023-10-19T02:26:06;10.10;;;8.27;;
10967;SDS011;5536;49.602;10.980;2023-10-19T02:28:34;9.40;;;8.40;;
10967;SDS011;5536;49.602;10.980;2023-10-19T02:31:04;13.10;;;9.20;;
10967;SDS011;5536;49.602;10.980;2023-10-19T02:33:39;15.57;;;9.17;;
10967;SDS011;5536;49.602;10.980;2023-10-19T02:36:08;12.37;;;9.53;;
10967;SDS011;5536;49.602;10.980;2023-10-19T02:38:38;11.80;;;8.97;;
10967;SDS011;5536;49.602;10.980;2023-10-19T02:41:05;11.10;;;8.83;;
10967;SDS011;5536;49.602;10.980;2023-10-19T02:43:36;11.97;;;9.13;;
10967;SDS011;5536;49.602;10.980;2023-10-19T02:46:02;12.60;;;8.90;;
10967;SDS011;5536;49.602;10.980;2023-10-19T02:48:29;17.57;;;8.77;;
10967;SDS011;5536;49.602;10.980;2023-10-19T02:50:56;13.53;;;8.90;;
10967;SDS011;5536;49.602;10.980;2023-10-19T02:53:31;14.57;;;8.97;;
10967;SDS011;5536;49.602;10.980;2023-10-19T02:55:59;12.17;;;8.63;;
10967;SDS011;5536;49.602;10.980;2023-10-19T02:58:37;20.60;;;8.90;;
10967;SDS011;5536;49.602;10.980;2023-10-19T03:01:11;11.43;;;9.03;;
10967;SDS011;5536;49.602;10.980;2023-10-19T03:03:42;11.17;;;8.20;;
10967;SDS011;5536;49.602;10.980;2023-10-19T03:06:09;9.50;;;8.47;;
10967;SDS011;5536;49.602;10.980;2023-10-19T03:08:36;11.57;;;9.10;;
10967;SDS011;5536;49.602;10.980;2023-10-19T03:11:02;17.43;;;9.47;;
10967;SDS011;5536;49.602;10.980;2023-10-19T03:13:34;14.70;;;9.23;;
10967;SDS011;5536;49.602;10.980;2023-10-19T03:16:01;12.50;;;9.17;;
10967;SDS011;5536;49.602;10.980;2023-10-19T03:18:32;18.53;;;9.97;;
10967;SDS011;5536;49.602;10.980;2023-10-19T03:20:59;10.27;;;8.93;;
10967;SDS011;5536;49.602;10.980;2023-10-19T03:23:26;11.00;;;8.80;;
10967;SDS011;5536;49.602;10.980;2023-10-19T03:25:54;12.50;;;9.57;;
10967;SDS011;5536;49.602;10.980;2023-10-19T03:28:35;15.00;;;10.17;;
10967;SDS011;5536;49.602;10.980;2023-10-19T03:31:03;12.30;;;9.10;;
10967;SDS011;5536;49.602;10.980;2023-10-19T03:33:31;16.53;;;10.30;;
10967;SDS011;5536;49.602;10.980;2023-10-19T03:36:01;9.87;;;8.70;;
10967;SDS011;5536;49.602;10.980;2023-10-19T03:38:28;12.63;;;8.63;;
10967;SDS011;5536;49.602;10.980;2023-10-19T03:40:59;14.20;;;9.67;;
10967;SDS011;5536;49.602;10.980;2023-10-19T03:43:31;11.03;;;9.37;;
10967;SDS011;5536;49.602;10.980;2023-10-19T03:46:01;13.67;;;9.90;;
10967;SDS011;5536;49.602;10.980;2023-10-19T03:48:39;10.60;;;8.87;;
10967;SDS011;5536;49.602;10.980;2023-10-19T03:51:07;12.40;;;9.00;;
10967;SDS011;5536;49.602;10.980;2023-10-19T03:53:37;12.17;;;9.60;;
10967;SDS011;5536;49.602;10.980;2023-10-19T03:56:08;11.27;;;8.93;;
10967;SDS011;5536;49.602;10.980;2023-10-19T03:58:36;11.43;;;8.97;;
10967;SDS011;5536;49.602;10.980;2023-10-19T04:01:05;11.70;;;9.10;;
10967;SDS011;5536;49.602;10.980;2023-10-19T04:03:32;9.87;;;8.03;;
10967;SDS011;5536;49.602;10.980;2023-10-19T04:06:01;11.03;;;9.17;;
10967;SDS011;5536;49.602;10.980;2023-10-19T04:08:30;12.60;;;8.80;;
10967;SDS011;5536;49.602;10.980;2023-10-19T04:11:02;12.77;;;9.03;;
10967;SDS011;5536;49.602;10.980;2023-10-19T04:13:37;12.80;;;9.67;;
10967;SDS011;5536;49.602;10.980;2023-10-19T04:16:05;10.23;;;8.87;;
10967;SDS011;5536;49.602;10.980;2023-10-19T04:18:35;13.20;;;8.33;;
10967;SDS011;5536;49.602;10.980;2023-10-19T04:21:08;10.17;;;8.77;;
10967;SDS011;5536;49.602;10.980;2023-10-19T04:23:35;12.57;;;9.67;;
10967;SDS011;5536;49.602;10.980;2023-10-19T04:26:02;9.80;;;8.27;;
10967;SDS011;5536;49.602;10.980;2023-10-19T04:28:36;15.53;;;9.73;;
10967;SDS011;5536;49.602;10.980;2023-10-19T04:31:11;12.17;;;9.70;;
10967;SDS011;5536;49.602;10.980;2023-10-19T04:33:41;9.97;;;8.77;;
10967;SDS011;5536;49.602;10.980;2023-10-19T04:36:14;15.10;;;10.07;;
10967;SDS011;5536;49.602;10.980;2023-10-19T04:38:44;10.57;;;8.27;;
10967;SDS011;5536;49.602;10.980;2023-10-19T04:41:12;16.30;;;9.70;;
10967;SDS011;5536;49.602;10.980;2023-10-19T04:43:40;22.77;;;9.80;;
10967;SDS011;5536;49.602;10.980;2023-10-19T04:46:16;10.63;;;9.00;;
10967;SDS011;5536;49.602;10.980;2023-10-19T04:48:44;13.70;;;10.13;;
10967;SDS011;5536;49.602;10.980;2023-10-19T04:51:11;11.07;;;9.10;;
10967;SDS011;5536;49.602;10.980;2023-10-19T04:53:39;11.10;;;9.67;;
10967;SDS011;5536;49.602;10.980;2023-10-19T04:56:07;11.70;;;9.23;;
10967;SDS011;5536;49.602;10.980;2023-10-19T04:58:35;11.17;;;9.30;;
10967;SDS011;5536;49.602;10.980;2023-10-19T05:01:02;10.80;;;9.20;;
10967;SDS011;5536;49.602;10.980;2023-10-19T05:03:31;11.57;;;9.37;;
10967;SDS011;5536;49.602;10.980;2023-10-19T05:05:59;14.50;;;10.67;;
10967;SDS011;5536;49.602;10.980;2023-10-19T05:08:26;17.13;;;9.27;;
10967;SDS011;5536;49.602;10.980;2023-10-19T05:10:54;12.10;;;9.60;;
10967;SDS011;5536;49.602;10.980;2023-10-19T05:13:24;12.53;;;9.50;;
10967;SDS011;5536;49.602;10.980;2023-10-19T05:15:52;12.60;;;9.70;;
10967;SDS011;5536;49.602;10.980;2023-10-19T05:18:19;12.13;;;9.90;;
10967;SDS011;5536;49.602;10.980;2023-10-19T05:20:48;14.97;;;10.03;;
10967;SDS011;5536;49.602;10.980;2023-10-19T05:23:20;14.07;;;10.03;;
10967;SDS011;5536;49.602;10.980;2023-10-19T05:25:49;11.30;;;10.00;;
10967;SDS011;5536;49.602;10.980;2023-10-19T05:28:17;13.37;;;10.37;;
10967;SDS011;5536;49.602;10.980;2023-10-19T05:30:44;12.37;;;10.13;;
10967;SDS011;5536;49.602;10.980;2023-10-19T05:33:13;15.90;;;8.53;;
10967;SDS011;5536;49.602;10.980;2023-10-19T05:35:40;15.70;;;10.97;;
10967;SDS011;5536;49.602;10.980;2023-10-19T05:38:10;17.97;;;11.07;;
10967;SDS011;5536;49.602;10.980;2023-10-19T05:40:36;14.47;;;10.03;;
10967;SDS011;5536;49.602;10.980;2023-10-19T05:43:04;11.40;;;10.20;;
10967;SDS011;5536;49.602;10.980;2023-10-19T05:45:32;18.03;;;10.50;;
10967;SDS011;5536;49.602;10.980;2023-10-19T05:48:01;11.77;;;9.70;;
10967;SDS011;5536;49.602;10.980;2023-10-19T05:50:31;16.83;;;11.13;;
10967;SDS011;5536;49.602;10.980;2023-10-19T05:52:58;12.10;;;10.13;;
10967;SDS011;5536;49.602;10.980;2023-10-19T05:55:27;13.87;;;9.77;;
10967;SDS011;5536;49.602;10.980;2023-10-19T05:57:54;17.80;;;11.07;;
10967;SDS011;5536;49.602;10.980;2023-10-19T06:00:21;15.00;;;10.43;;
10967;SDS011;5536;49.602;10.980;2023-10-19T06:02:51;19.77;;;12.73;;
10967;SDS011;5536;49.602;10.980;2023-10-19T06:05:19;13.40;;;10.17;;
10967;SDS011;5536;49.602;10.980;2023-10-19T06:07:46;27.43;;;11.23;;
10967;SDS011;5536;49.602;10.980;2023-10-19T06:10:15;15.63;;;10.33;;
10967;SDS011;5536;49.602;10.980;2023-10-19T06:12:44;13.10;;;9.67;;
10967;SDS011;5536;49.602;10.980;2023-10-19T06:15:12;17.03;;;11.93;;
10967;SDS011;5536;49.602;10.980;2023-10-19T06:17:41;14.83;;;10.43;;
10967;SDS011;5536;49.602;10.980;2023-10-19T06:20:11;16.57;;;10.77;;
10967;SDS011;5536;49.602;10.980;2023-10-19T06:22:49;12.30;;;10.17;;
10967;SDS011;5536;49.602;10.980;2023-10-19T06:25:16;12.37;;;10.13;;
10967;SDS011;5536;49.602;10.980;2023-10-19T06:27:46;17.63;;;10.97;;
10967;SDS011;5536;49.602;10.980;2023-10-19T06:30:14;16.83;;;10.97;;
10967;SDS011;5536;49.602;10.980;2023-10-19T06:32:47;20.10;;;10.57;;
10967;SDS011;5536;49.602;10.980;2023-10-19T06:35:15;13.70;;;10.30;;
10967;SDS011;5536;49.602;10.980;2023-10-19T06:37:42;15.03;;;10.00;;
10967;SDS011;5536;49.602;10.980;2023-10-19T06:40:10;13.67;;;9.70;;
10967;SDS011;5536;49.602;10.980;2023-10-19T06:42:40;11.57;;;9.87;;
10967;SDS011;5536;49.602;10.980;2023-10-19T06:45:09;12.43;;;9.30;;
10967;SDS011;5536;49.602;10.980;2023-10-19T06:47:38;12.50;;;10.23;;
10967;SDS011;5536;49.602;10.980;2023-10-19T06:50:06;14.13;;;10.73;;
10967;SDS011;5536;49.602;10.980;2023-10-19T06:52:35;16.93;;;10.13;;
10967;SDS011;5536;49.602;10.980;2023-10-19T06:55:03;12.63;;;10.17;;
10967;SDS011;5536;49.602;10.980;2023-10-19T06:57:32;12.63;;;10.00;;
10967;SDS011;5536;49.602;10.980;2023-10-19T06:59:59;16.80;;;10.83;;
10967;SDS011;5536;49.602;10.980;2023-10-19T07:02:40;14.03;;;9.97;;
10967;SDS011;5536;49.602;10.980;2023-10-19T07:05:08;11.27;;;10.00;;
10967;SDS011;5536;49.602;10.980;2023-10-19T07:07:36;13.27;;;10.37;;
10967;SDS011;5536;49.602;10.980;2023-10-19T07:10:05;14.73;;;10.63;;
10967;SDS011;5536;49.602;10.980;2023-10-19T07:12:34;14.00;;;9.97;;
10967;SDS011;5536;49.602;10.980;2023-10-19T07:15:02;10.10;;;9.07;;
10967;SDS011;5536;49.602;10.980;2023-10-19T07:17:32;14.60;;;10.63;;
10967;SDS011;5536;49.602;10.980;2023-10-19T07:20:01;14.00;;;10.77;;
10967;SDS011;5536;49.602;10.980;2023-10-19T07:22:31;13.67;;;9.50;;
10967;SDS011;5536;49.602;10.980;2023-10-19T07:25:01;11.53;;;9.33;;
10967;SDS011;5536;49.602;10.980;2023-10-19T07:27:30;12.87;;;10.67;;
10967;SDS011;5536;49.602;10.980;2023-10-19T07:29:58;12.90;;;9.47;;
10967;SDS011;5536;49.602;10.980;2023-10-19T07:32:25;20.33;;;12.60;;
10967;SDS011;5536;49.602;10.980;2023-10-19T07:34:53;15.93;;;11.40;;
10967;SDS011;5536;49.602;10.980;2023-10-19T07:37:22;13.93;;;10.57;;
10967;SDS011;5536;49.602;10.980;2023-10-19T07:39:49;17.83;;;11.13;;
10967;SDS011;5536;49.602;10.980;2023-10-19T07:42:17;11.93;;;10.33;;
10967;SDS011;5536;49.602;10.980;2023-10-19T07:44:45;10.37;;;8.87;;
10967;SDS011;5536;49.602;10.980;2023-10-19T07:47:12;14.90;;;10.10;;
10967;SDS011;5536;49.602;10.980;2023-10-19T07:49:39;13.80;;;10.30;;
10967;SDS011;5536;49.602;10.980;2023-10-19T07:52:06;10.83;;;9.70;;
10967;SDS011;5536;49.602;10.980;2023-10-19T07:54:35;13.73;;;10.53;;
10967;SDS011;5536;49.602;10.980;2023-10-19T07:57:02;9.87;;;8.73;;
10967;SDS011;5536;49.602;10.980;2023-10-19T07:59:31;9.40;;;8.37;;
10967;SDS011;5536;49.602;10.980;2023-10-19T08:01:58;9.53;;;7.97;;
10967;SDS011;5536;49.602;10.980;2023-10-19T08:04:28;13.70;;;9.60;;
10967;SDS011;5536;49.602;10.980;2023-10-19T08:06:55;12.27;;;9.20;;
10967;SDS011;5536;49.602;10.980;2023-10-19T08:09:22;9.90;;;8.57;;
10967;SDS011;5536;49.602;10.980;2023-10-19T08:11:52;16.00;;;9.40;;
10967;SDS011;5536;49.602;10.980;2023-10-19T08:14:21;12.57;;;8.77;;
10967;SDS011;5536;49.602;10.980;2023-10-19T08:16:49;10.33;;;9.03;;
10967;SDS011;5536;49.602;10.980;2023-10-19T08:19:16;11.07;;;9.07;;
10967;SDS011;5536;49.602;10.980;2023-10-19T08:21:44;12.80;;;10.07;;
10967;SDS011;5536;49.602;10.980;2023-10-19T08:24:12;12.87;;;9.87;;
10967;SDS011;5536;49.602;10.980;2023-10-19T08:26:43;10.13;;;8.40;;
10967;SDS011;5536;49.602;10.980;2023-10-19T08:29:12;9.30;;;8.30;;
10967;SDS011;5536;49.602;10.980;2023-10-19T08:31:39;10.73;;;8.87;;
10967;SDS011;5536;49.602;10.980;2023-10-19T08:34:06;12.87;;;8.83;;
10967;SDS011;5536;49.602;10.980;2023-10-19T08:36:36;18.67;;;9.63;;
10967;SDS011;5536;49.602;10.980;2023-10-19T08:39:04;14.13;;;9.50;;
10967;SDS011;5536;49.602;10.980;2023-10-19T08:41:32;13.60;;;8.53;;
10967;SDS011;5536;49.602;10.980;2023-10-19T08:44:00;13.93;;;9.67;;
10967;SDS011;5536;49.602;10.980;2023-10-19T08:46:29;10.10;;;8.37;;
10967;SDS011;5536;49.602;10.980;2023-10-19T08:48:57;10.67;;;8.50;;
10967;SDS011;5536;49.602;10.980;2023-10-19T08:51:24;15.77;;;9.50;;
10967;SDS011;5536;49.602;10.980;2023-10-19T08:53:52;11.50;;;8.90;;
10967;SDS011;5536;49.602;10.980;2023-10-19T08:56:20;9.27;;;8.30;;
10967;SDS011;5536;49.602;10.980;2023-10-19T08:58:49;10.20;;;8.37;;
10967;SDS011;5536;49.602;10.980;2023-10-19T09:01:17;18.23;;;9.17;;
10967;SDS011;5536;49.602;10.980;2023-10-19T09:03:46;10.63;;;8.73;;
10967;SDS011;5536;49.602;10.980;2023-10-19T09:06:13;12.83;;;8.97;;
10967;SDS011;5536;49.602;10.980;2023-10-19T09:08:40;12.87;;;9.70;;
10967;SDS011;5536;49.602;10.980;2023-10-19T09:11:10;14.03;;;8.97;;
10967;SDS011;5536;49.602;10.980;2023-10-19T09:13:44;11.07;;;9.30;;
10967;SDS011;5536;49.602;10.980;2023-10-19T09:16:13;15.90;;;9.77;;
10967;SDS011;5536;49.602;10.980;2023-10-19T09:18:41;10.57;;;8.60;;
10967;SDS011;5536;49.602;10.980;2023-10-19T09:21:11;9.80;;;8.03;;
10967;SDS011;5536;49.602;10.980;2023-10-19T09:23:49;10.77;;;8.60;;
10967;SDS011;5536;49.602;10.980;2023-10-19T09:26:16;10.70;;;8.70;;
10967;SDS011;5536;49.602;10.980;2023-10-19T09:28:46;13.10;;;9.37;;
10967;SDS011;5536;49.602;10.980;2023-10-19T09:31:13;11.57;;;9.20;;
10967;SDS011;5536;49.602;10.980;2023-10-19T09:33:41;9.70;;;8.43;;
10967;SDS011;5536;49.602;10.980;2023-10-19T09:36:12;9.73;;;8.23;;
10967;SDS011;5536;49.602;10.980;2023-10-19T09:38:42;11.90;;;9.03;;
10967;SDS011;5536;49.602;10.980;2023-10-19T09:41:13;11.50;;;9.03;;
10967;SDS011;5536;49.602;10.980;2023-10-19T09:43:43;10.07;;;8.53;;
10967;SDS011;5536;49.602;10.980;2023-10-19T09:46:11;13.03;;;8.90;;
10967;SDS011;5536;49.602;10.980;2023-10-19T09:48:40;10.73;;;8.90;;
10967;SDS011;5536;49.602;10.980;2023-10-19T09:51:08;10.90;;;8.63;;
10967;SDS011;5536;49.602;10.980;2023-10-19T09:53:38;10.97;;;8.97;;
10967;SDS011;5536;49.602;10.980;2023-10-19T09:56:06;11.97;;;8.73;;
10967;SDS011;5536;49.602;10.980;2023-10-19T09:58:40;10.87;;;8.30;;
10967;SDS011;5536;49.602;10.980;2023-10-19T10:01:11;8.60;;;7.70;;
10967;SDS011;5536;49.602;10.980;2023-10-19T10:03:44;13.03;;;8.93;;
10967;SDS011;5536;49.602;10.980;2023-10-19T10:06:14;13.53;;;7.77;;
10967;SDS011;5536;49.602;10.980;2023-10-19T10:08:42;11.10;;;8.00;;
10967;SDS011;5536;49.602;10.980;2023-10-19T10:11:20;13.57;;;9.17;;
10967;SDS011;5536;49.602;10.980;2023-10-19T10:13:48;9.70;;;7.47;;
10967;SDS011;5536;49.602;10.980;2023-10-19T10:16:21;9.80;;;8.40;;
10967;SDS011;5536;49.602;10.980;2023-10-19T10:18:50;13.33;;;8.10;;
10967;SDS011;5536;49.602;10.980;2023-10-19T10:21:22;9.10;;;8.10;;
10967;SDS011;5536;49.602;10.980;2023-10-19T10:23:51;13.37;;;8.03;;
10967;SDS011;5536;49.602;10.980;2023-10-19T10:26:19;8.93;;;7.57;;
10967;SDS011;5536;49.602;10.980;2023-10-19T10:31:40;12.43;;;7.30;;
10967;SDS011;5536;49.602;10.980;2023-10-19T10:34:09;10.83;;;7.93;;
10967;SDS011;5536;49.602;10.980;2023-10-19T10:39:27;13.03;;;8.33;;
10967;SDS011;5536;49.602;10.980;2023-10-19T10:41:55;9.53;;;7.00;;
10967;SDS011;5536;49.602;10.980;2023-10-19T10:44:35;10.40;;;7.53;;
10967;SDS011;5536;49.602;10.980;2023-10-19T10:47:04;9.60;;;7.43;;
10967;SDS011;5536;49.602;10.980;2023-10-19T10:49:33;8.83;;;7.63;;
10967;SDS011;5536;49.602;10.980;2023-10-19T10:52:01;10.60;;;6.93;;
10967;SDS011;5536;49.602;10.980;2023-10-19T10:54:28;8.73;;;7.17;;
10967;SDS011;5536;49.602;10.980;2023-10-19T10:56:55;9.57;;;7.20;;
10967;SDS011;5536;49.602;10.980;2023-10-19T10:59:22;10.77;;;7.83;;
10967;SDS011;5536;49.602;10.980;2023-10-19T11:01:51;18.50;;;7.27;;
10967;SDS011;5536;49.602;10.980;2023-10-19T11:04:18;7.53;;;6.77;;
10967;SDS011;5536;49.602;10.980;2023-10-19T11:06:48;7.77;;;6.77;;
10967;SDS011;5536;49.602;10.980;2023-10-19T11:09:17;6.93;;;6.27;;
10967;SDS011;5536;49.602;10.980;2023-10-19T11:11:44;8.43;;;7.57;;
10967;SDS011;5536;49.602;10.980;2023-10-19T11:14:12;7.23;;;6.53;;
10967;SDS011;5536;49.602;10.980;2023-10-19T11:16:39;9.17;;;7.07;;
10967;SDS011;5536;49.602;10.980;2023-10-19T11:19:08;17.43;;;7.10;;
10967;SDS011;5536;49.602;10.980;2023-10-19T11:21:35;10.77;;;7.23;;
10967;SDS011;5536;49.602;10.980;2023-10-19T11:24:02;7.83;;;6.80;;
10967;SDS011;5536;49.602;10.980;2023-10-19T11:26:31;8.97;;;6.23;;
10967;SDS011;5536;49.602;10.980;2023-10-19T11:29:06;10.00;;;6.23;;
10967;SDS011;5536;49.602;10.980;2023-10-19T11:31:34;9.10;;;6.75;;
10967;SDS011;5536;49.602;10.980;2023-10-19T11:34:04;7.10;;;6.15;;
10967;SDS011;5536;49.602;10.980;2023-10-19T11:36:34;11.95;;;5.75;;
10967;SDS011;5536;49.602;10.980;2023-10-19T11:39:01;7.05;;;6.35;;
10967;SDS011;5536;49.602;10.980;2023-10-19T11:41:29;7.53;;;6.70;;
10967;SDS011;5536;49.602;10.980;2023-10-19T11:43:57;6.03;;;5.30;;
10967;SDS011;5536;49.602;10.980;2023-10-19T11:46:25;8.10;;;6.45;;
10967;SDS011;5536;49.602;10.980;2023-10-19T11:48:52;6.38;;;5.68;;
10967;SDS011;5536;49.602;10.980;2023-10-19T11:51:19;7.00;;;5.45;;
10967;SDS011;5536;49.602;10.980;2023-10-19T11:53:46;5.75;;;5.13;;
10967;SDS011;5536;49.602;10.980;2023-10-19T11:56:13;8.02;;;5.72;;
10967;SDS011;5536;49.602;10.980;2023-10-19T11:58:41;8.27;;;5.43;;
10967;SDS011;5536;49.602;10.980;2023-10-19T12:01:13;7.00;;;5.72;;
10967;SDS011;5536;49.602;10.980;2023-10-19T12:03:42;6.38;;;5.72;;
10967;SDS011;5536;49.602;10.980;2023-10-19T12:06:10;5.78;;;5.22;;
10967;SDS011;5536;49.602;10.980;2023-10-19T12:08:44;6.40;;;5.25;;
10967;SDS011;5536;49.602;10.980;2023-10-19T12:11:11;6.78;;;5.43;;
10967;SDS011;5536;49.602;10.980;2023-10-19T12:13:41;6.15;;;5.53;;
10967;SDS011;5536;49.602;10.980;2023-10-19T12:16:09;5.35;;;4.85;;
10967;SDS011;5536;49.602;10.980;2023-10-19T12:18:39;7.50;;;5.45;;
10967;SDS011;5536;49.602;10.980;2023-10-19T12:21:07;7.30;;;5.20;;
10967;SDS011;5536;49.602;10.980;2023-10-19T12:23:38;5.60;;;5.10;;
10967;SDS011;5536;49.602;10.980;2023-10-19T12:26:05;8.50;;;5.65;;
10967;SDS011;5536;49.602;10.980;2023-10-19T12:28:36;19.42;;;5.38;;
10967;SDS011;5536;49.602;10.980;2023-10-19T12:31:04;8.90;;;5.93;;
10967;SDS011;5536;49.602;10.980;2023-10-19T12:33:33;5.60;;;5.10;;
10967;SDS011;5536;49.602;10.980;2023-10-19T12:36:02;8.52;;;5.25;;
10967;SDS011;5536;49.602;10.980;2023-10-19T12:38:47;5.75;;;5.10;;
10967;SDS011;5536;49.602;10.980;2023-10-19T12:41:15;7.05;;;5.43;;
10967;SDS011;5536;49.602;10.980;2023-10-19T12:43:42;6.18;;;5.57;;
10967;SDS011;5536;49.602;10.980;2023-10-19T12:46:10;8.57;;;5.63;;
10967;SDS011;5536;49.602;10.980;2023-10-19T12:48:38;5.60;;;5.03;;
10967;SDS011;5536;49.602;10.980;2023-10-19T12:51:07;5.97;;;5.03;;
10967;SDS011;5536;49.602;10.980;2023-10-19T12:53:36;4.73;;;4.33;;
10967;SDS011;5536;49.602;10.980;2023-10-19T12:56:04;5.50;;;4.97;;
10967;SDS011;5536;49.602;10.980;2023-10-19T12:58:31;6.20;;;5.30;;
10967;SDS011;5536;49.602;10.980;2023-10-19T13:00:58;5.50;;;5.00;;
10967;SDS011;5536;49.602;10.980;2023-10-19T13:03:25;5.50;;;4.87;;
10967;SDS011;5536;49.602;10.980;2023-10-19T13:05:53;6.13;;;5.27;;
10967;SDS011;5536;49.602;10.980;2023-10-19T13:08:24;6.90;;;4.87;;
10967;SDS011;5536;49.602;10.980;2023-10-19T13:10:52;6.03;;;5.43;;
10967;SDS011;5536;49.602;10.980;2023-10-19T13:13:20;5.90;;;5.30;;
10967;SDS011;5536;49.602;10.980;2023-10-19T13:15:49;7.13;;;5.10;;
10967;SDS011;5536;49.602;10.980;2023-10-19T13:18:18;5.93;;;4.93;;
10967;SDS011;5536;49.602;10.980;2023-10-19T13:20:46;6.93;;;5.43;;
10967;SDS011;5536;49.602;10.980;2023-10-19T13:23:14;6.30;;;5.33;;
10967;SDS011;5536;49.602;10.980;2023-10-19T13:25:43;9.77;;;6.30;;
10967;SDS011;5536;49.602;10.980;2023-10-19T13:28:16;6.17;;;4.77;;
10967;SDS011;5536;49.602;10.980;2023-10-19T13:30:46;12.03;;;5.50;;
10967;SDS011;5536;49.602;10.980;2023-10-19T13:33:14;5.97;;;5.03;;
10967;SDS011;5536;49.602;10.980;2023-10-19T13:35:42;5.57;;;5.07;;
10967;SDS011;5536;49.602;10.980;2023-10-19T13:38:10;5.27;;;4.77;;
10967;SDS011;5536;49.602;10.980;2023-10-19T13:40:39;5.60;;;5.10;;
10967;SDS011;5536;49.602;10.980;2023-10-19T13:43:08;8.53;;;5.10;;
10967;SDS011;5536;49.602;10.980;2023-10-19T13:45:39;5.50;;;5.00;;
10967;SDS011;5536;49.602;10.980;2023-10-19T13:48:08;14.37;;;4.93;;
10967;SDS011;5536;49.602;10.980;2023-10-19T13:50:40;5.47;;;4.93;;
10967;SDS011;5536;49.602;10.980;2023-10-19T13:53:09;10.43;;;5.30;;
10967;SDS011;5536;49.602;10.980;2023-10-19T13:55:36;15.47;;;5.83;;
10967;SDS011;5536;49.602;10.980;2023-10-19T13:58:03;6.57;;;4.97;;
10967;SDS011;5536;49.602;10.980;2023-10-19T14:00:33;8.30;;;4.70;;
10967;SDS011;5536;49.602;10.980;2023-10-19T14:03:05;6.20;;;5.40;;
10967;SDS011;5536;49.602;10.980;2023-10-19T14:05:35;5.60;;;5.10;;
10967;SDS011;5536;49.602;10.980;2023-10-19T14:08:03;7.00;;;5.90;;
10967;SDS011;5536;49.602;10.980;2023-10-19T14:10:30;6.73;;;5.43;;
10967;SDS011;5536;49.602;10.980;2023-10-19T14:12:57;7.60;;;5.33;;
10967;SDS011;5536;49.602;10.980;2023-10-19T14:15:24;6.43;;;5.60;;
10967;SDS011;5536;49.602;10.980;2023-10-19T14:17:55;5.00;;;4.60;;
10967;SDS011;5536;49.602;10.980;2023-10-19T14:20:23;4.90;;;4.40;;
10967;SDS011;5536;49.602;10.980;2023-10-19T14:22:51;8.27;;;5.37;;
10967;SDS011;5536;49.602;10.980;2023-10-19T14:25:18;6.67;;;5.53;;
10967;SDS011;5536;49.602;10.980;2023-10-19T14:27:47;8.20;;;6.13;;
10967;SDS011;5536;49.602;10.980;2023-10-19T14:30:15;5.23;;;4.73;;
10967;SDS011;5536;49.602;10.980;2023-10-19T14:32:43;6.53;;;5.57;;
10967;SDS011;5536;49.602;10.980;2023-10-19T14:35:13;5.63;;;5.13;;
10967;SDS011;5536;49.602;10.980;2023-10-19T14:37:42;8.30;;;5.53;;
10967;SDS011;5536;49.602;10.980;2023-10-19T14:40:10;6.93;;;5.50;;
10967;SDS011;5536;49.602;10.980;2023-10-19T14:42:39;5.80;;;4.70;;
10967;SDS011;5536;49.602;10.980;2023-10-19T14:45:08;8.40;;;5.40;;
10967;SDS011;5536;49.602;10.980;2023-10-19T14:47:36;17.77;;;5.17;;
10967;SDS011;5536;49.602;10.980;2023-10-19T14:50:06;8.93;;;5.13;;
10967;SDS011;5536;49.602;10.980;2023-10-19T14:52:37;7.57;;;4.80;;